createdAt,value
2023-05-16T04:02:35.784Z,10.51
2023-05-16T04:06:38.371Z,10.53
2023-05-16T04:10:41.034Z,10.57
2023-05-16T04:14:43.640Z,10.62
2023-05-16T04:18:47.507Z,10.65
2023-05-16T04:22:50.051Z,10.60
2023-05-16T04:26:52.657Z,10.73
2023-05-16T04:30:55.172Z,10.46
2023-05-16T04:34:58.998Z,10.52
2023-05-16T04:39:01.586Z,10.54
2023-05-16T04:43:04.280Z,10.71
2023-05-16T04:47:29.559Z,10.98
2023-05-16T04:51:33.789Z,10.94
2023-05-16T04:55:36.402Z,10.83
2023-05-16T04:59:39.500Z,10.93
2023-05-16T05:03:41.993Z,10.77
2023-05-16T05:07:45.912Z,10.69
2023-05-16T05:11:48.415Z,10.83
2023-05-16T05:15:52.325Z,11.04
2023-05-16T05:19:54.848Z,10.95
2023-05-16T05:23:58.723Z,10.93
2023-05-16T05:28:01.406Z,10.93
2023-05-16T05:32:04.197Z,10.69
2023-05-16T05:36:07.431Z,10.65
2023-05-16T05:40:12.076Z,10.59
2023-05-16T05:44:14.647Z,10.47
2023-05-16T05:48:17.222Z,10.31
2023-05-16T05:52:19.806Z,10.19
2023-05-16T05:56:24.681Z,10.32
2023-05-16T06:00:27.821Z,10.38
2023-05-16T06:04:30.317Z,10.39
2023-05-16T06:08:32.869Z,10.35
2023-05-16T06:12:36.771Z,10.24
2023-05-16T06:16:40.146Z,10.33
2023-05-16T06:20:42.572Z,10.22
2023-05-16T06:24:45.081Z,10.42
2023-05-16T06:28:48.949Z,10.35
2023-05-16T06:32:51.708Z,10.15
2023-05-16T06:36:54.353Z,10.01
2023-05-16T06:40:56.896Z,10.01
2023-05-16T06:45:01.031Z,9.96
2023-05-16T06:49:03.623Z,9.86
2023-05-16T06:53:07.318Z,9.85
2023-05-16T06:57:10.022Z,10.04
2023-05-16T07:01:14.062Z,10.08
2023-05-16T07:05:16.987Z,9.75
2023-05-16T07:09:19.566Z,9.68
2023-05-16T07:13:22.305Z,9.65
2023-05-16T07:17:26.518Z,9.71
2023-05-16T07:21:29.219Z,9.73
2023-05-16T07:25:33.031Z,9.57
2023-05-16T07:29:37.256Z,9.73
2023-05-16T07:33:41.161Z,9.80
2023-05-16T07:37:43.870Z,9.57
2023-05-16T07:41:46.461Z,9.71
2023-05-16T07:45:49.074Z,10.09
2023-05-16T07:49:53.012Z,10.35
2023-05-16T07:53:55.616Z,10.65
2023-05-16T07:57:58.330Z,10.87
2023-05-16T08:02:01.251Z,11.19
2023-05-16T08:06:05.729Z,11.21
2023-05-16T08:10:11.268Z,11.51
2023-05-16T08:14:15.848Z,12.02
2023-05-16T08:18:20.701Z,12.03
2023-05-16T08:22:27.206Z,12.22
2023-05-16T08:26:29.791Z,12.09
2023-05-16T08:30:32.355Z,11.81
2023-05-16T08:34:34.926Z,12.17
2023-05-16T08:38:38.817Z,12.04
2023-05-16T08:42:42.792Z,12.43
2023-05-16T08:46:51.506Z,13.47
2023-05-16T08:50:54.166Z,13.41
2023-05-16T08:55:10.110Z,12.58
2023-05-16T08:59:13.493Z,12.62
2023-05-16T09:03:16.588Z,12.13
2023-05-16T09:07:19.252Z,12.18
2023-05-16T09:11:23.477Z,12.60
2023-05-16T09:15:32.530Z,12.60
2023-05-16T09:19:40.132Z,12.62
2023-05-16T09:23:43.757Z,12.86
2023-05-16T09:27:48.912Z,12.58
2023-05-16T09:31:51.605Z,12.46
2023-05-16T09:35:58.631Z,12.70
2023-05-16T09:40:01.171Z,12.51
2023-05-16T09:44:07.119Z,12.49
2023-05-16T09:48:13.003Z,12.69
2023-05-16T09:52:15.780Z,12.68
2023-05-16T09:56:18.363Z,12.87
2023-05-16T10:00:22.840Z,12.90
2023-05-16T10:04:25.570Z,12.86
2023-05-16T10:08:28.408Z,13.27
2023-05-16T10:12:32.608Z,12.92
2023-05-16T10:16:36.862Z,13.38
2023-05-16T10:20:42.429Z,13.71
2023-05-16T10:24:49.239Z,13.25
2023-05-16T10:28:52.501Z,13.77
2023-05-16T10:32:57.850Z,13.79
2023-05-16T10:37:01.607Z,13.80
2023-05-16T10:41:04.581Z,13.18
2023-05-16T10:45:10.804Z,13.48
2023-05-16T10:49:26.039Z,14.30
2023-05-16T10:53:33.136Z,14.51
2023-05-16T10:57:36.642Z,14.87
2023-05-16T11:01:42.003Z,14.25
2023-05-16T11:05:52.636Z,13.75
2023-05-16T11:10:05.791Z,14.14
2023-05-16T11:14:08.754Z,14.77
2023-05-16T11:18:16.117Z,14.13
2023-05-16T11:22:27.839Z,13.74
2023-05-16T11:26:32.477Z,13.75
2023-05-16T11:30:35.166Z,14.09
2023-05-16T11:34:39.564Z,14.93
2023-05-16T11:38:43.904Z,14.65
2023-05-16T11:42:48.525Z,14.12
2023-05-16T11:46:51.225Z,14.39
2023-05-16T11:50:53.937Z,14.44
2023-05-16T11:55:01.375Z,14.63
2023-05-16T11:59:04.545Z,15.07
2023-05-16T12:03:08.184Z,14.67
2023-05-16T12:07:10.931Z,15.07
2023-05-16T12:11:14.817Z,15.53
2023-05-16T12:15:17.416Z,16.04
2023-05-16T12:19:20.782Z,15.93
2023-05-16T12:23:23.375Z,16.00
2023-05-16T12:27:27.563Z,16.16
2023-05-16T12:31:32.542Z,16.03
2023-05-16T12:35:36.173Z,14.92
2023-05-16T12:39:39.513Z,14.33
2023-05-16T12:43:43.269Z,14.81
2023-05-16T12:47:46.966Z,15.65
2023-05-16T12:51:50.817Z,16.40
2023-05-16T12:55:53.342Z,15.64
2023-05-16T12:59:57.263Z,14.98
2023-05-16T13:03:59.878Z,15.04
2023-05-16T13:08:03.189Z,14.78
2023-05-16T13:12:05.887Z,14.90
2023-05-16T13:16:10.255Z,14.78
2023-05-16T13:20:14.880Z,15.41
2023-05-16T13:24:17.737Z,16.61
2023-05-16T13:28:21.093Z,15.74
2023-05-16T13:32:25.195Z,15.20
2023-05-16T13:36:28.668Z,14.93
2023-05-16T13:40:33.926Z,14.97
2023-05-16T13:44:36.593Z,15.04
2023-05-16T13:48:40.665Z,15.58
2023-05-16T13:52:43.850Z,16.29
2023-05-16T13:56:46.763Z,16.72
2023-05-16T14:00:49.581Z,17.27
2023-05-16T14:04:53.738Z,16.42
2023-05-16T14:08:56.326Z,16.85
2023-05-16T14:12:58.851Z,17.17
2023-05-16T14:17:01.458Z,17.00
2023-05-16T14:21:05.792Z,16.79
2023-05-16T14:25:09.039Z,16.77
2023-05-16T14:29:12.235Z,15.72
2023-05-16T14:33:14.747Z,15.02
2023-05-16T14:37:18.586Z,14.95
2023-05-16T14:41:21.265Z,15.24
2023-05-16T14:45:26.024Z,15.27
2023-05-16T14:49:28.686Z,15.48
2023-05-16T14:53:32.633Z,15.51
2023-05-16T14:57:35.336Z,15.60
2023-05-16T15:01:37.925Z,15.23
2023-05-16T15:05:41.012Z,15.62
2023-05-16T15:09:44.906Z,15.25
2023-05-16T15:13:48.300Z,15.01
2023-05-16T15:17:50.854Z,14.67
2023-05-16T15:21:53.434Z,15.39
2023-05-16T15:25:57.412Z,15.53
2023-05-16T15:30:00.162Z,15.46
2023-05-16T15:34:02.686Z,15.73
2023-05-16T15:38:05.656Z,15.73
2023-05-16T15:42:11.379Z,16.01
2023-05-16T15:46:14.604Z,16.85
2023-05-16T15:50:17.265Z,17.15
2023-05-16T15:54:19.970Z,16.89
2023-05-16T15:58:23.810Z,16.85
2023-05-16T16:02:26.683Z,18.64
2023-05-16T16:06:29.420Z,17.89
2023-05-16T16:10:31.961Z,17.64
2023-05-16T16:14:35.808Z,17.15
2023-05-16T16:18:39.903Z,17.09
2023-05-16T16:22:42.429Z,17.73
2023-05-16T16:26:44.983Z,17.18
2023-05-16T16:30:50.295Z,17.75
2023-05-16T16:34:52.959Z,17.93
2023-05-16T16:38:55.924Z,17.96
2023-05-16T16:42:58.725Z,17.19
2023-05-16T16:47:02.928Z,16.84
2023-05-16T16:51:05.682Z,16.63
2023-05-16T16:55:08.973Z,15.88
2023-05-16T16:59:11.667Z,15.58
2023-05-16T17:03:15.623Z,16.16
2023-05-16T17:07:18.159Z,16.24
2023-05-16T17:11:23.336Z,16.39
2023-05-16T17:15:26.694Z,16.35
2023-05-16T17:19:30.717Z,15.61
2023-05-16T17:23:33.562Z,15.52
2023-05-16T17:27:36.255Z,15.88
2023-05-16T17:31:38.869Z,16.22
2023-05-16T17:35:43.734Z,16.38
2023-05-16T17:39:46.488Z,15.73
2023-05-16T17:43:49.114Z,15.22
2023-05-16T17:47:51.661Z,15.60
2023-05-16T17:51:58.090Z,15.34
2023-05-16T17:56:00.966Z,14.91
2023-05-16T18:00:05.427Z,14.05
2023-05-16T18:04:08.969Z,13.83
2023-05-16T18:08:12.763Z,13.57
2023-05-16T18:12:15.358Z,13.25
2023-05-16T18:16:19.041Z,13.21
2023-05-16T18:20:21.907Z,12.88
2023-05-16T18:24:25.903Z,12.76
2023-05-16T18:28:29.258Z,12.51
2023-05-16T18:32:32.319Z,12.45
2023-05-16T18:36:34.992Z,12.34
2023-05-16T18:40:38.901Z,12.12
2023-05-16T18:44:41.412Z,11.97
2023-05-16T18:48:44.000Z,11.86
2023-05-16T18:52:46.574Z,11.68
2023-05-16T18:56:50.608Z,11.62
2023-05-16T19:00:53.201Z,11.47
2023-05-16T19:04:56.718Z,11.33
2023-05-16T19:09:00.725Z,11.21
2023-05-16T19:13:07.156Z,11.02
2023-05-16T19:17:09.760Z,10.90
2023-05-16T19:21:13.394Z,10.85
2023-05-16T19:25:16.159Z,10.81
2023-05-16T19:29:21.331Z,10.67
2023-05-16T19:33:23.917Z,10.57
2023-05-16T19:37:26.523Z,10.44
2023-05-16T19:41:37.442Z,10.32
2023-05-16T19:45:41.334Z,10.22
2023-05-16T19:49:43.910Z,10.10
2023-05-16T19:53:47.023Z,9.97
2023-05-16T19:57:52.186Z,9.91
2023-05-16T20:01:56.196Z,9.86
2023-05-16T20:05:58.740Z,9.78
2023-05-16T20:10:01.301Z,9.72
2023-05-16T20:14:03.866Z,9.68
2023-05-16T20:18:07.879Z,9.64
2023-05-16T20:22:10.581Z,9.57
2023-05-16T20:26:14.712Z,9.48
2023-05-16T20:30:17.327Z,9.39
2023-05-16T20:34:21.161Z,9.29
2023-05-16T20:38:23.701Z,9.33
2023-05-16T20:42:26.241Z,9.32
2023-05-16T20:46:28.752Z,9.25
2023-05-16T20:50:35.945Z,9.18
2023-05-16T20:54:38.645Z,9.10
2023-05-16T20:58:42.215Z,9.02
